PWSweather.com
Personal Weather Stations
Station Observations
COONRAPIDS
Minneapolis, MN 55433

Minneapolis, MN 55433

Lat: 45.187721, Lon: -93.36828

Elevation: 898

Station Type: Davis Vantage Pro 2

High Low Average
Temperature 44.1°F6.7°C 34.4°F1.3°C 39.5°F4.2°C
Dew Point 40.2°F4.6°C 28.9°F-1.7°C 33.2°F0.7°C
Winds 4.6 mph 7.4 kmh Calm Calm 1.0 mph NE1.6 kmh NE
Wind Gusts 10.4 mph16.7 kmh -- 3.0 mph4.8 kmh
Humidity 87% 69% 78%
Pressure 30.26 in1024.7 mb 30.15 in1021.0 mb -
Precipitation 0.11 in2.8 mm - -
Hour Temp Dew Point Humidity Winds Wind Gusts Pressure Precip Precip Rate Daily Precip Total
12:00 AM 39.9°F4.4°C 33.6°F0.9°C 78% 2.3 mph NE3.7 kmh NE 5.8 mph9.3 kmh 30.20 in1022.7 mb - 0.00 in0.0 mm 0.00 in0.0 mm
12:10 AM 39.8°F4.3°C 33.2°F0.7°C 77% 2.3 mph NE3.7 kmh NE 3.5 mph5.6 kmh 30.21 in1023.0 mb - 0.00 in0.0 mm 0.00 in0.0 mm
12:20 AM 39.8°F4.3°C 32.8°F0.4°C 76% 2.3 mph NE3.7 kmh NE 3.5 mph5.6 kmh 30.21 in1023.0 mb - 0.00 in0.0 mm 0.00 in0.0 mm
12:30 AM 39.7°F4.3°C 32.4°F0.2°C 75% 2.3 mph NE3.7 kmh NE 6.9 mph11.1 kmh 30.21 in1023.0 mb - 0.00 in0.0 mm 0.00 in0.0 mm
12:40 AM 39.7°F4.3°C 32.4°F0.2°C 75% Calm Calm -- 30.21 in1023.0 mb - 0.00 in0.0 mm 0.00 in0.0 mm
12:50 AM 39.6°F4.2°C 32.4°F0.2°C 75% 3.5 mph NE5.6 kmh NE 5.8 mph9.3 kmh 30.20 in1022.7 mb - 0.00 in0.0 mm 0.00 in0.0 mm
01:00 AM 39.5°F4.2°C 31.2°F-0.4°C 72% 1.2 mph ENE1.9 kmh ENE 3.5 mph5.6 kmh 30.20 in1022.7 mb - 0.00 in0.0 mm 0.00 in0.0 mm
01:10 AM 39.4°F4.1°C 30.8°F-0.7°C 71% 2.3 mph NE3.7 kmh NE 4.6 mph7.4 kmh 30.20 in1022.7 mb - 0.00 in0.0 mm 0.00 in0.0 mm
01:20 AM 39.4°F4.1°C 30.8°F-0.7°C 71% Calm Calm 3.5 mph5.6 kmh 30.20 in1022.7 mb - 0.00 in0.0 mm 0.00 in0.0 mm
01:30 AM 39.3°F4.1°C 30.7°F-0.7°C 71% Calm Calm 2.3 mph3.7 kmh 30.20 in1022.7 mb - 0.00 in0.0 mm 0.00 in0.0 mm
01:40 AM 39.1°F3.9°C 30.5°F-0.8°C 71% Calm Calm -- 30.21 in1023.0 mb - 0.00 in0.0 mm 0.00 in0.0 mm
01:50 AM 39.0°F3.9°C 30.7°F-0.7°C 72% Calm Calm -- 30.20 in1022.7 mb - 0.00 in0.0 mm 0.00 in0.0 mm
02:00 AM 39.0°F3.9°C 30.7°F-0.7°C 72% 1.2 mph NE1.9 kmh NE 2.3 mph3.7 kmh 30.21 in1023.0 mb - 0.00 in0.0 mm 0.00 in0.0 mm
02:10 AM 38.9°F3.8°C 30.6°F-0.8°C 72% Calm Calm -- 30.21 in1023.0 mb - 0.00 in0.0 mm 0.00 in0.0 mm
02:20 AM 38.7°F3.7°C 30.8°F-0.7°C 73% 2.3 mph NE3.7 kmh NE 3.5 mph5.6 kmh 30.21 in1023.0 mb - 0.00 in0.0 mm 0.00 in0.0 mm
02:30 AM 38.5°F3.6°C 30.9°F-0.6°C 74% Calm Calm -- 30.21 in1023.0 mb - 0.00 in0.0 mm 0.00 in0.0 mm
02:40 AM 38.4°F3.6°C 31.2°F-0.4°C 75% Calm Calm 3.5 mph5.6 kmh 30.21 in1023.0 mb - 0.00 in0.0 mm 0.00 in0.0 mm
02:50 AM 38.3°F3.5°C 31.4°F-0.3°C 76% 1.2 mph NE1.9 kmh NE 2.3 mph3.7 kmh 30.22 in1023.4 mb - 0.00 in0.0 mm 0.00 in0.0 mm
03:00 AM 38.2°F3.4°C 31.3°F-0.4°C 76% 2.3 mph NE3.7 kmh NE 2.3 mph3.7 kmh 30.22 in1023.4 mb - 0.00 in0.0 mm 0.00 in0.0 mm
03:10 AM 38.0°F3.3°C 31.4°F-0.3°C 77% 1.2 mph NE1.9 kmh NE 3.5 mph5.6 kmh 30.23 in1023.7 mb - 0.00 in0.0 mm 0.00 in0.0 mm
03:20 AM 37.8°F3.2°C 31.2°F-0.4°C 77% Calm Calm 2.3 mph3.7 kmh 30.23 in1023.7 mb - 0.00 in0.0 mm 0.00 in0.0 mm
03:30 AM 37.6°F3.1°C 31.0°F-0.6°C 77% 2.3 mph NE3.7 kmh NE 5.8 mph9.3 kmh 30.23 in1023.7 mb - 0.00 in0.0 mm 0.00 in0.0 mm
03:40 AM 37.3°F2.9°C 30.4°F-0.9°C 76% Calm Calm 1.2 mph1.9 kmh 30.24 in1024.0 mb - 0.00 in0.0 mm 0.00 in0.0 mm
03:50 AM 37.1°F2.8°C 30.3°F-0.9°C 76% Calm Calm 3.5 mph5.6 kmh 30.24 in1024.0 mb - 0.00 in0.0 mm 0.00 in0.0 mm
04:00 AM 36.8°F2.7°C 30.0°F-1.1°C 76% 1.2 mph NE1.9 kmh NE 3.5 mph5.6 kmh 30.24 in1024.0 mb - 0.00 in0.0 mm 0.00 in0.0 mm
04:10 AM 36.4°F2.4°C 29.6°F-1.3°C 76% 1.2 mph NE1.9 kmh NE 8.1 mph13.0 kmh 30.24 in1024.0 mb - 0.00 in0.0 mm 0.00 in0.0 mm
04:20 AM 36.1°F2.3°C 29.6°F-1.3°C 77% 3.5 mph NE5.6 kmh NE 4.6 mph7.4 kmh 30.25 in1024.4 mb - 0.00 in0.0 mm 0.00 in0.0 mm
04:30 AM 35.9°F2.2°C 29.4°F-1.4°C 77% 2.3 mph NNE3.7 kmh NNE 6.9 mph11.1 kmh 30.24 in1024.0 mb - 0.00 in0.0 mm 0.00 in0.0 mm
04:40 AM 35.6°F2.0°C 29.4°F-1.4°C 78% 2.3 mph NE3.7 kmh NE 4.6 mph7.4 kmh 30.24 in1024.0 mb - 0.00 in0.0 mm 0.00 in0.0 mm
04:50 AM 35.4°F1.9°C 29.2°F-1.6°C 78% 1.2 mph NE1.9 kmh NE 3.5 mph5.6 kmh 30.24 in1024.0 mb - 0.00 in0.0 mm 0.00 in0.0 mm
05:00 AM 35.1°F1.7°C 28.9°F-1.7°C 78% Calm Calm -- 30.24 in1024.0 mb - 0.00 in0.0 mm 0.00 in0.0 mm
05:10 AM 34.9°F1.6°C 29.0°F-1.7°C 79% 3.5 mph NE5.6 kmh NE 4.6 mph7.4 kmh 30.24 in1024.0 mb - 0.00 in0.0 mm 0.00 in0.0 mm
05:20 AM 34.7°F1.5°C 28.9°F-1.7°C 79% 4.6 mph NE7.4 kmh NE 10.4 mph16.7 kmh 30.24 in1024.0 mb - 0.00 in0.0 mm 0.00 in0.0 mm
05:30 AM 34.5°F1.4°C 29.0°F-1.7°C 80% 1.2 mph NE1.9 kmh NE 9.2 mph14.8 kmh 30.24 in1024.0 mb - 0.00 in0.0 mm 0.00 in0.0 mm
05:40 AM 34.4°F1.3°C 28.9°F-1.7°C 80% 3.5 mph NE5.6 kmh NE 5.8 mph9.3 kmh 30.24 in1024.0 mb - 0.00 in0.0 mm 0.00 in0.0 mm
05:50 AM 34.4°F1.3°C 28.9°F-1.7°C 80% 1.2 mph NE1.9 kmh NE 2.3 mph3.7 kmh 30.24 in1024.0 mb - 0.00 in0.0 mm 0.00 in0.0 mm
06:00 AM 34.5°F1.4°C 29.0°F-1.7°C 80% 3.5 mph NNE5.6 kmh NNE 6.9 mph11.1 kmh 30.25 in1024.4 mb - 0.00 in0.0 mm 0.00 in0.0 mm
06:10 AM 34.6°F1.4°C 29.1°F-1.6°C 80% 3.5 mph NE5.6 kmh NE 6.9 mph11.1 kmh 30.25 in1024.4 mb - 0.00 in0.0 mm 0.00 in0.0 mm
06:20 AM 34.8°F1.6°C 29.3°F-1.5°C 80% 3.5 mph NNE5.6 kmh NNE 4.6 mph7.4 kmh 30.25 in1024.4 mb - 0.00 in0.0 mm 0.00 in0.0 mm
06:30 AM 35.1°F1.7°C 29.6°F-1.3°C 80% 3.5 mph NE5.6 kmh NE 6.9 mph11.1 kmh 30.26 in1024.7 mb - 0.00 in0.0 mm 0.00 in0.0 mm
06:40 AM 35.3°F1.8°C 29.4°F-1.4°C 79% 1.2 mph NE1.9 kmh NE 2.3 mph3.7 kmh 30.26 in1024.7 mb - 0.00 in0.0 mm 0.00 in0.0 mm
06:50 AM 35.6°F2.0°C 29.7°F-1.3°C 79% 1.2 mph NE1.9 kmh NE 3.5 mph5.6 kmh 30.25 in1024.4 mb - 0.00 in0.0 mm 0.00 in0.0 mm
07:00 AM 35.6°F2.0°C 29.4°F-1.4°C 78% 3.5 mph NE5.6 kmh NE 4.6 mph7.4 kmh 30.25 in1024.4 mb - 0.00 in0.0 mm 0.00 in0.0 mm
07:10 AM 35.9°F2.2°C 29.7°F-1.3°C 78% 3.5 mph NE5.6 kmh NE 4.6 mph7.4 kmh 30.25 in1024.4 mb - 0.00 in0.0 mm 0.00 in0.0 mm
07:20 AM 36.4°F2.4°C 30.2°F-1.0°C 78% 1.2 mph NE1.9 kmh NE 3.5 mph5.6 kmh 30.25 in1024.4 mb - 0.00 in0.0 mm 0.00 in0.0 mm
07:30 AM 36.9°F2.7°C 30.0°F-1.1°C 76% 3.5 mph NE5.6 kmh NE 6.9 mph11.1 kmh 30.23 in1023.7 mb - 0.00 in0.0 mm 0.00 in0.0 mm
07:40 AM 37.1°F2.8°C 30.2°F-1.0°C 76% 2.3 mph NE3.7 kmh NE 5.8 mph9.3 kmh 30.23 in1023.7 mb - 0.00 in0.0 mm 0.00 in0.0 mm
07:50 AM 37.2°F2.9°C 30.0°F-1.1°C 75% 1.2 mph NE1.9 kmh NE 3.5 mph5.6 kmh 30.24 in1024.0 mb - 0.00 in0.0 mm 0.00 in0.0 mm
08:00 AM 37.1°F2.8°C 29.9°F-1.2°C 75% 2.3 mph NNE3.7 kmh NNE 3.5 mph5.6 kmh 30.24 in1024.0 mb - 0.00 in0.0 mm 0.00 in0.0 mm
08:10 AM 37.2°F2.9°C 30.0°F-1.1°C 75% 2.3 mph NE3.7 kmh NE 5.8 mph9.3 kmh 30.23 in1023.7 mb - 0.00 in0.0 mm 0.00 in0.0 mm
08:20 AM 37.6°F3.1°C 30.4°F-0.9°C 75% 2.3 mph NE3.7 kmh NE 6.9 mph11.1 kmh 30.24 in1024.0 mb - 0.00 in0.0 mm 0.00 in0.0 mm
08:30 AM 37.9°F3.3°C 30.4°F-0.9°C 74% Calm Calm 3.5 mph5.6 kmh 30.24 in1024.0 mb - 0.00 in0.0 mm 0.00 in0.0 mm
08:40 AM 38.3°F3.5°C 30.4°F-0.9°C 73% Calm Calm -- 30.24 in1024.0 mb - 0.00 in0.0 mm 0.00 in0.0 mm
08:50 AM 38.6°F3.7°C 30.4°F-0.9°C 72% Calm Calm -- 30.24 in1024.0 mb - 0.00 in0.0 mm 0.00 in0.0 mm
09:00 AM 38.7°F3.7°C 30.4°F-0.9°C 72% 2.3 mph NE3.7 kmh NE 6.9 mph11.1 kmh 30.24 in1024.0 mb - 0.00 in0.0 mm 0.00 in0.0 mm
09:10 AM 39.2°F4.0°C 30.6°F-0.8°C 71% 1.2 mph NE1.9 kmh NE 3.5 mph5.6 kmh 30.24 in1024.0 mb - 0.00 in0.0 mm 0.00 in0.0 mm
09:20 AM 39.5°F4.2°C 30.5°F-0.8°C 70% 2.3 mph ENE3.7 kmh ENE 3.5 mph5.6 kmh 30.25 in1024.4 mb - 0.00 in0.0 mm 0.00 in0.0 mm
09:30 AM 39.9°F4.4°C 30.5°F-0.8°C 69% 2.3 mph NE3.7 kmh NE 4.6 mph7.4 kmh 30.24 in1024.0 mb - 0.00 in0.0 mm 0.00 in0.0 mm
09:40 AM 40.2°F4.6°C 31.2°F-0.4°C 70% 2.3 mph NE3.7 kmh NE 6.9 mph11.1 kmh 30.24 in1024.0 mb - 0.00 in0.0 mm 0.00 in0.0 mm
09:50 AM 40.4°F4.7°C 31.0°F-0.6°C 69% Calm Calm 4.6 mph7.4 kmh 30.24 in1024.0 mb - 0.00 in0.0 mm 0.00 in0.0 mm
10:00 AM 40.4°F4.7°C 31.0°F-0.6°C 69% 1.2 mph ENE1.9 kmh ENE 3.5 mph5.6 kmh 30.23 in1023.7 mb - 0.00 in0.0 mm 0.00 in0.0 mm
10:10 AM 40.7°F4.8°C 32.0°F0.0°C 71% 2.3 mph NNE3.7 kmh NNE 3.5 mph5.6 kmh 30.23 in1023.7 mb - 0.00 in0.0 mm 0.00 in0.0 mm
10:20 AM 40.8°F4.9°C 32.9°F0.5°C 73% 2.3 mph NE3.7 kmh NE 3.5 mph5.6 kmh 30.23 in1023.7 mb - 0.00 in0.0 mm 0.00 in0.0 mm
10:30 AM 40.9°F4.9°C 33.9°F1.1°C 76% 1.2 mph ENE1.9 kmh ENE 4.6 mph7.4 kmh 30.23 in1023.7 mb - 0.01 in0.3 mm 0.01 in0.3 mm
10:40 AM 41.2°F5.1°C 34.5°F1.4°C 77% Calm Calm -- 30.23 in1023.7 mb - 0.01 in0.3 mm 0.01 in0.3 mm
10:50 AM 41.1°F5.1°C 34.4°F1.3°C 77% Calm Calm -- 30.23 in1023.7 mb - 0.01 in0.3 mm 0.01 in0.3 mm
11:00 AM 41.1°F5.1°C 34.7°F1.5°C 78% Calm Calm -- 30.22 in1023.4 mb - 0.01 in0.3 mm 0.01 in0.3 mm
11:10 AM 41.1°F5.1°C 34.8°F1.6°C 78% Calm Calm -- 30.22 in1023.4 mb - 0.02 in0.5 mm 0.02 in0.5 mm
11:20 AM 41.6°F5.3°C 35.6°F2.0°C 79% Calm Calm -- 30.22 in1023.4 mb - 0.02 in0.5 mm 0.02 in0.5 mm
11:30 AM 41.8°F5.4°C 35.4°F1.9°C 78% 2.3 mph E3.7 kmh E 2.3 mph3.7 kmh 30.22 in1023.4 mb - 0.01 in0.3 mm 0.02 in0.5 mm
11:40 AM 42.0°F5.6°C 35.6°F2.0°C 78% 1.2 mph ENE1.9 kmh ENE 2.3 mph3.7 kmh 30.21 in1023.0 mb - 0.01 in0.3 mm 0.02 in0.5 mm
11:50 AM 42.6°F5.9°C 36.5°F2.5°C 79% Calm Calm 2.3 mph3.7 kmh 30.21 in1023.0 mb - 0.01 in0.3 mm 0.02 in0.5 mm
12:00 PM 42.8°F6.0°C 36.4°F2.4°C 78% Calm Calm -- 30.20 in1022.7 mb - 0.01 in0.3 mm 0.02 in0.5 mm
12:10 PM 43.1°F6.2°C 37.0°F2.8°C 79% Calm Calm 3.5 mph5.6 kmh 30.21 in1023.0 mb - 0.00 in0.0 mm 0.02 in0.5 mm
12:20 PM 43.3°F6.3°C 36.9°F2.7°C 78% Calm Calm -- 30.20 in1022.7 mb - 0.00 in0.0 mm 0.02 in0.5 mm
12:30 PM 43.2°F6.2°C 37.2°F2.9°C 79% 1.2 mph ENE1.9 kmh ENE 3.5 mph5.6 kmh 30.21 in1023.0 mb - 0.01 in0.3 mm 0.03 in0.8 mm
12:40 PM 43.1°F6.2°C 37.3°F2.9°C 80% Calm Calm 3.5 mph5.6 kmh 30.21 in1023.0 mb - 0.01 in0.3 mm 0.03 in0.8 mm
12:50 PM 43.0°F6.1°C 37.3°F2.9°C 80% 1.2 mph NE1.9 kmh NE 2.3 mph3.7 kmh 30.21 in1023.0 mb - 0.01 in0.3 mm 0.03 in0.8 mm
01:00 PM 43.0°F6.1°C 37.9°F3.3°C 82% 2.3 mph NE3.7 kmh NE 3.5 mph5.6 kmh 30.21 in1023.0 mb - 0.02 in0.5 mm 0.04 in1.0 mm
01:10 PM 42.9°F6.1°C 37.8°F3.2°C 82% Calm Calm -- 30.20 in1022.7 mb - 0.03 in0.8 mm 0.05 in1.3 mm
01:20 PM 42.8°F6.0°C 38.0°F3.3°C 83% Calm Calm 3.5 mph5.6 kmh 30.20 in1022.7 mb - 0.03 in0.8 mm 0.05 in1.3 mm
01:30 PM 42.9°F6.1°C 38.1°F3.4°C 83% 1.2 mph NE1.9 kmh NE -- 30.20 in1022.7 mb - 0.03 in0.8 mm 0.06 in1.5 mm
01:40 PM 43.0°F6.1°C 38.5°F3.6°C 84% 2.3 mph NE3.7 kmh NE 3.5 mph5.6 kmh 30.21 in1023.0 mb - 0.04 in1.0 mm 0.07 in1.8 mm
01:50 PM 42.9°F6.1°C 38.4°F3.6°C 84% 1.2 mph ENE1.9 kmh ENE 2.3 mph3.7 kmh 30.21 in1023.0 mb - 0.04 in1.0 mm 0.07 in1.8 mm
02:00 PM 42.9°F6.1°C 38.4°F3.6°C 84% 1.2 mph NE1.9 kmh NE 4.6 mph7.4 kmh 30.20 in1022.7 mb - 0.03 in0.8 mm 0.07 in1.8 mm
02:10 PM 43.3°F6.3°C 39.1°F3.9°C 85% Calm Calm -- 30.20 in1022.7 mb - 0.03 in0.8 mm 0.08 in2.0 mm
02:20 PM 43.6°F6.4°C 39.4°F4.1°C 85% Calm Calm -- 30.20 in1022.7 mb - 0.03 in0.8 mm 0.08 in2.0 mm
02:30 PM 43.7°F6.5°C 39.8°F4.3°C 86% Calm Calm -- 30.20 in1022.7 mb - 0.03 in0.8 mm 0.09 in2.3 mm
02:40 PM 43.6°F6.4°C 39.7°F4.3°C 86% 2.3 mph ENE3.7 kmh ENE 4.6 mph7.4 kmh 30.20 in1022.7 mb - 0.02 in0.5 mm 0.09 in2.3 mm
02:50 PM 43.8°F6.6°C 39.9°F4.4°C 86% 1.2 mph NE1.9 kmh NE 3.5 mph5.6 kmh 30.19 in1022.4 mb - 0.02 in0.5 mm 0.09 in2.3 mm
03:00 PM 43.8°F6.6°C 39.9°F4.4°C 86% Calm Calm 4.6 mph7.4 kmh 30.18 in1022.0 mb - 0.02 in0.5 mm 0.09 in2.3 mm
03:10 PM 44.1°F6.7°C 40.2°F4.6°C 86% 3.5 mph NE5.6 kmh NE 8.1 mph13.0 kmh 30.17 in1021.7 mb - 0.02 in0.5 mm 0.10 in2.5 mm
03:20 PM 44.1°F6.7°C 40.2°F4.6°C 86% 1.2 mph ENE1.9 kmh ENE 3.5 mph5.6 kmh 30.17 in1021.7 mb - 0.02 in0.5 mm 0.10 in2.5 mm
03:30 PM 44.0°F6.7°C 40.1°F4.5°C 86% 1.2 mph E1.9 kmh E 3.5 mph5.6 kmh 30.16 in1021.3 mb - 0.01 in0.3 mm 0.10 in2.5 mm
03:40 PM 43.9°F6.6°C 40.0°F4.4°C 86% 2.3 mph NE3.7 kmh NE 3.5 mph5.6 kmh 30.16 in1021.3 mb - 0.01 in0.3 mm 0.10 in2.5 mm
05:20 PM 43.9°F6.6°C 40.0°F4.4°C 86% Calm Calm -- 30.16 in1021.3 mb - 0.02 in0.5 mm 0.11 in2.8 mm
05:30 PM 43.1°F6.2°C 39.5°F4.2°C 87% 2.3 mph ENE3.7 kmh ENE 3.5 mph5.6 kmh 30.15 in1021.0 mb - 0.02 in0.5 mm 0.11 in2.8 mm
05:40 PM 43.1°F6.2°C 39.5°F4.2°C 87% Calm Calm -- 30.15 in1021.0 mb - 0.01 in0.3 mm 0.11 in2.8 mm
05:50 PM 42.9°F6.1°C 39.3°F4.1°C 87% Calm Calm -- 30.15 in1021.0 mb - 0.01 in0.3 mm 0.11 in2.8 mm
06:00 PM 42.8°F6.0°C 39.2°F4.0°C 87% Calm Calm -- 30.15 in1021.0 mb - 0.01 in0.3 mm 0.11 in2.8 mm
06:10 PM 42.8°F6.0°C 39.2°F4.0°C 87% Calm Calm 2.3 mph3.7 kmh 30.16 in1021.3 mb - 0.01 in0.3 mm 0.11 in2.8 mm
06:20 PM 42.6°F5.9°C 38.7°F3.7°C 86% Calm Calm -- 30.16 in1021.3 mb - 0.00 in0.0 mm 0.11 in2.8 mm
06:30 PM 42.6°F5.9°C 38.7°F3.7°C 86% Calm Calm -- 30.15 in1021.0 mb - 0.00 in0.0 mm 0.11 in2.8 mm
06:40 PM 42.5°F5.8°C 38.3°F3.5°C 85% 3.5 mph ENE5.6 kmh ENE 2.3 mph3.7 kmh 30.15 in1021.0 mb - 0.00 in0.0 mm 0.11 in2.8 mm
06:50 PM 42.4°F5.8°C 38.2°F3.4°C 85% 2.3 mph E3.7 kmh E 3.5 mph5.6 kmh 30.14 in1020.7 mb - 0.00 in0.0 mm 0.11 in2.8 mm
07:00 PM 42.3°F5.7°C 37.8°F3.2°C 84% 2.3 mph E3.7 kmh E 3.5 mph5.6 kmh 30.14 in1020.7 mb - 0.00 in0.0 mm 0.11 in2.8 mm
07:10 PM 42.3°F5.7°C 37.8°F3.2°C 84% Calm Calm 2.3 mph3.7 kmh 30.14 in1020.7 mb - 0.00 in0.0 mm 0.11 in2.8 mm
07:20 PM 42.2°F5.7°C 37.7°F3.2°C 84% 2.3 mph E3.7 kmh E 4.6 mph7.4 kmh 30.14 in1020.7 mb - 0.00 in0.0 mm 0.11 in2.8 mm
07:30 PM 42.0°F5.6°C 37.2°F2.9°C 83% Calm Calm -- 30.15 in1021.0 mb - 0.00 in0.0 mm 0.11 in2.8 mm
07:40 PM 41.9°F5.5°C 37.1°F2.8°C 83% Calm Calm -- 30.14 in1020.7 mb - 0.00 in0.0 mm 0.11 in2.8 mm
07:50 PM 41.8°F5.4°C 37.0°F2.8°C 83% 1.2 mph E1.9 kmh E 4.6 mph7.4 kmh 30.14 in1020.7 mb - 0.00 in0.0 mm 0.11 in2.8 mm
08:00 PM 41.8°F5.4°C 37.0°F2.8°C 83% 1.2 mph ENE1.9 kmh ENE 3.5 mph5.6 kmh 30.14 in1020.7 mb - 0.00 in0.0 mm 0.11 in2.8 mm
08:10 PM 41.8°F5.4°C 36.7°F2.6°C 82% Calm Calm -- 30.14 in1020.7 mb - 0.00 in0.0 mm 0.11 in2.8 mm
08:20 PM 41.8°F5.4°C 36.7°F2.6°C 82% 1.2 mph E1.9 kmh E 2.3 mph3.7 kmh 30.13 in1020.3 mb - 0.00 in0.0 mm 0.11 in2.8 mm
08:30 PM 41.8°F5.4°C 36.7°F2.6°C 82% 1.2 mph E1.9 kmh E 3.5 mph5.6 kmh 30.12 in1020.0 mb - 0.00 in0.0 mm 0.11 in2.8 mm
08:40 PM 41.8°F5.4°C 36.7°F2.6°C 82% 2.3 mph E3.7 kmh E 4.6 mph7.4 kmh 30.11 in1019.6 mb - 0.00 in0.0 mm 0.11 in2.8 mm
08:50 PM 41.8°F5.4°C 36.7°F2.6°C 82% 4.6 mph E7.4 kmh E 6.9 mph11.1 kmh 30.11 in1019.6 mb - 0.00 in0.0 mm 0.11 in2.8 mm
09:00 PM 41.7°F5.4°C 36.3°F2.4°C 81% 2.3 mph E3.7 kmh E 4.6 mph7.4 kmh 30.12 in1020.0 mb - 0.00 in0.0 mm 0.11 in2.8 mm
09:10 PM 41.6°F5.3°C 36.2°F2.3°C 81% 2.3 mph E3.7 kmh E 3.5 mph5.6 kmh 30.13 in1020.3 mb - 0.00 in0.0 mm 0.11 in2.8 mm
09:20 PM 41.5°F5.3°C 36.1°F2.3°C 81% 1.2 mph E1.9 kmh E 3.5 mph5.6 kmh 30.12 in1020.0 mb - 0.00 in0.0 mm 0.11 in2.8 mm
09:30 PM 41.3°F5.2°C 35.9°F2.2°C 81% 2.3 mph E3.7 kmh E 6.9 mph11.1 kmh 30.12 in1020.0 mb - 0.00 in0.0 mm 0.11 in2.8 mm
09:40 PM 41.1°F5.1°C 35.4°F1.9°C 80% 2.3 mph E3.7 kmh E 3.5 mph5.6 kmh 30.12 in1020.0 mb - 0.00 in0.0 mm 0.11 in2.8 mm
09:50 PM 41.1°F5.1°C 35.4°F1.9°C 80% 2.3 mph ESE3.7 kmh ESE 3.5 mph5.6 kmh 30.11 in1019.6 mb - 0.00 in0.0 mm 0.11 in2.8 mm
10:00 PM 41.0°F5.0°C 35.3°F1.8°C 80% Calm Calm 4.6 mph7.4 kmh 30.11 in1019.6 mb - 0.00 in0.0 mm 0.11 in2.8 mm
10:10 PM 40.9°F4.9°C 35.2°F1.8°C 80% 1.2 mph E1.9 kmh E 2.3 mph3.7 kmh 30.11 in1019.6 mb - 0.00 in0.0 mm 0.11 in2.8 mm
10:20 PM 40.7°F4.8°C 35.3°F1.8°C 81% Calm Calm -- 30.11 in1019.6 mb - 0.00 in0.0 mm 0.11 in2.8 mm
10:30 PM 40.6°F4.8°C 35.5°F1.9°C 82% Calm Calm -- 30.12 in1020.0 mb - 0.01 in0.3 mm 0.12 in3.0 mm
10:40 PM 40.4°F4.7°C 35.6°F2.0°C 83% Calm Calm -- 30.11 in1019.6 mb - 0.02 in0.5 mm 0.13 in3.3 mm
10:50 PM 40.2°F4.6°C 35.8°F2.1°C 84% Calm Calm -- 30.11 in1019.6 mb - 0.02 in0.5 mm 0.13 in3.3 mm
11:00 PM 40.1°F4.5°C 35.6°F2.0°C 84% 1.2 mph NE1.9 kmh NE 3.5 mph5.6 kmh 30.11 in1019.6 mb - 0.03 in0.8 mm 0.74 in18.8 mm
11:10 PM 39.9°F4.4°C 35.8°F2.1°C 85% Calm Calm -- 30.11 in1019.6 mb - 0.05 in1.3 mm 0.02 in0.5 mm
11:20 PM 39.9°F4.4°C 35.8°F2.1°C 85% 1.2 mph ENE1.9 kmh ENE 2.3 mph3.7 kmh 30.11 in1019.6 mb - 0.06 in1.5 mm 0.03 in0.8 mm
11:30 PM 39.8°F4.3°C 36.0°F2.2°C 86% 1.2 mph NE1.9 kmh NE 4.6 mph7.4 kmh 30.11 in1019.6 mb - 0.05 in1.3 mm 0.03 in0.8 mm
11:40 PM 39.7°F4.3°C 35.9°F2.2°C 86% Calm Calm -- 30.12 in1020.0 mb - 0.06 in1.5 mm 0.04 in1.0 mm
11:50 PM 39.7°F4.3°C 35.9°F2.2°C 86% 2.3 mph NE3.7 kmh NE 2.3 mph3.7 kmh 30.12 in1020.0 mb - 0.06 in1.5 mm 0.05 in1.3 mm